Главная страница
METAR-TAF:

METAR-TAF

Аэропорты :

Vilhelmina, Швеция

широта: 64-34-44N, долгота: 016-50-00E, высота над уровнем моря: 347 м

Текущие метеонаблюдения

Эта сводка был подготовлена 28 минут назад, в 15:20 UTC
Ветер 4 Узел от южный, изменяющийся между юго-восточный и западный-юго-западный
Температура 19°C
Влажность 43%
Давление 1011 hPa
Видимость 10 км и более

METAR: ESNV 221520Z AUTO 18004KT 130V240 9999 OVC073/// 19/06 Q1011

Время: 17:48 (15:48 UTC)


TAF: отсутствует

Метеонаблюдения и прогнозы для более 4000 аэропортов (сводки METAR и TAF).

Имеющиеся станции представлены на карте желтыми и красными точками.

Чтобы увидеть название станции, наведите на нее мышь.

Затем щелкните, чтобы увидеть метеонаблюдения и метеопрогнозы.

Управление картой: чтобы увеличить масштаб, щелкните зеленые кнопки с черным крестиком; чтобы уменьшить масштаб, щелкните зеленую кнопку с тире; для просмотра соседних карт щелкайте зеленые стрелки.


METAR-TAF: